deepershades.net alexa rank chart, deepershades.net alexa rank daily changes

deepershades.net alexa rank chart, deepershades.net alexa rank daily changes

deepershades.net
Actual rank:
474 557

RANK HISTORY

Date Rank Diff
2019/01/24 474 557 +200 929
2019/01/23 273 628 -371 813
2019/01/22 645 441 +226 196
2019/01/20 419 245 -74 451
2019/01/19 493 696 +88 191
2019/01/18 405 505 +86 052
2019/01/17 319 453 -87 321
2019/01/16 406 774 +132 226
2019/01/15 274 548 -15 084
2019/01/14 289 632 -167 442
2019/01/13 457 074 -201 741
2019/01/12 658 815 -203 635
2019/01/11 862 450 +566 864
2019/01/10 295 586 -14 185
2019/01/09 309 771 -497 695
2019/01/08 807 466 +585 736
2019/01/07 221 730 -14 561
2019/01/06 236 291 -657 366
2019/01/05 893 657 +550 682
2019/01/03 342 975 +175 607
2018/12/31 167 368 -69 810
2018/12/30 237 178 -216 474
2018/12/29 453 652 +237 732
2018/12/28 215 920 -239 041
2018/12/25 454 961 +183 612
2018/12/24 271 349 +46 281
2018/12/23 225 068 -113 265
2018/12/21 338 333 -552 899
2018/12/19 891 232 +472 019
2018/12/17 419 213 -526 194
2018/12/16 945 407 +543 583
2018/12/15 401 824 -120 116
2018/12/14 521 940 +300 272
2018/12/12 221 668 -107 567
2018/12/11 329 235 +45 815
2018/12/10 283 420 -186 645
2018/12/09 470 065 -273 489
2018/12/07 743 554 +455 991
2018/12/06 287 563 -397 363
2018/12/05 684 926 +199 636
2018/12/03 485 290 +137 041
2018/12/02 348 249 -212 960
2018/12/01 561 209 -146 336
2018/11/29 707 545 +169 084
2018/11/28 538 461 +156 897
2018/11/27 381 564 -1 155
2018/11/26 382 719 +58 234
2018/11/25 324 485

WIDGET FOR YOUR SITE

DOMAINS WITH THE NEAREST RANK

Domain Rank
links-url.blogspot.com 474 552
elamigodelpueblo.com 474 553
gardners.com 474 554
khmershare.news 474 555
lonmadi.ru 474 556
deepershades.net 474 557
phnompenhreporter.com 474 558
farmerstrend.co.ke 474 559
carthook.com 474 560
domtom.club 474 561
attarzaman.com 474 562

DOMAINS WITH THE NEAREST RANK BY TLD .net

Domain Rank
3xpla.net 474 443
easyhits4u.net 474 444
meandroid.net 474 452
kinojove.net 474 465
mistress-x.net 474 502
deepershades.net 474 557
regionfreedvd.net 474 575
filtermusic.net 474 580
24freelance.net 474 582
sonokinetic.net 474 589
canliligtvseyret.net 474 617